createdAt,value
2018-03-06T00:00:35.335Z,4.61
2018-03-06T00:02:37.820Z,4.59
2018-03-06T00:04:40.344Z,4.61
2018-03-06T00:06:42.806Z,4.68
2018-03-06T00:08:45.300Z,4.63
2018-03-06T00:10:47.800Z,4.57
2018-03-06T00:12:50.310Z,4.51
2018-03-06T00:14:52.888Z,4.69
2018-03-06T00:16:56.879Z,4.65
2018-03-06T00:18:59.335Z,4.59
2018-03-06T00:21:01.853Z,4.67
2018-03-06T00:23:04.308Z,4.69
2018-03-06T00:25:06.873Z,4.59
2018-03-06T00:27:09.374Z,4.47
2018-03-06T00:29:11.969Z,4.50
2018-03-06T00:31:14.567Z,4.53
2018-03-06T00:33:17.025Z,4.50
2018-03-06T00:35:19.521Z,4.58
2018-03-06T00:37:21.996Z,4.46
2018-03-06T00:39:24.546Z,4.37
2018-03-06T00:41:27.014Z,4.35
2018-03-06T00:43:29.525Z,4.24
2018-03-06T00:45:32.025Z,4.27
2018-03-06T00:47:34.496Z,4.16
2018-03-06T00:49:37.084Z,4.24
2018-03-06T00:51:39.699Z,4.34
2018-03-06T00:53:42.140Z,4.31
2018-03-06T00:55:44.709Z,4.33
2018-03-06T00:57:47.384Z,4.37
2018-03-06T00:59:49.849Z,4.31
2018-03-06T01:01:52.406Z,4.31
2018-03-06T01:03:54.967Z,4.36
2018-03-06T01:05:57.437Z,4.22
2018-03-06T01:07:59.926Z,4.35
2018-03-06T01:10:02.387Z,4.34
2018-03-06T01:12:04.939Z,4.24
2018-03-06T01:14:07.493Z,4.18
2018-03-06T01:16:09.956Z,4.44
2018-03-06T01:18:12.430Z,4.36
2018-03-06T01:20:14.917Z,4.34
2018-03-06T01:22:17.431Z,4.35
2018-03-06T01:24:19.994Z,4.27
2018-03-06T01:26:22.482Z,4.15
2018-03-06T01:28:25.089Z,4.08
2018-03-06T01:30:27.641Z,4.05
2018-03-06T01:32:30.089Z,4.08
2018-03-06T01:34:32.668Z,3.94
2018-03-06T01:36:35.154Z,4.01
2018-03-06T01:38:37.989Z,4.01
2018-03-06T01:40:40.487Z,3.94
2018-03-06T01:42:42.962Z,3.84
2018-03-06T01:44:45.445Z,3.88
2018-03-06T01:46:48.039Z,4.02
2018-03-06T01:48:50.531Z,4.03
2018-03-06T01:50:53.006Z,3.86
2018-03-06T01:52:55.621Z,3.83
2018-03-06T01:54:58.125Z,3.89
2018-03-06T01:57:00.616Z,3.79
2018-03-06T01:59:03.204Z,3.73
2018-03-06T02:01:05.665Z,3.75
2018-03-06T02:03:08.162Z,3.73
2018-03-06T02:05:10.620Z,3.69
2018-03-06T02:07:13.110Z,3.72
2018-03-06T02:09:15.565Z,3.58
2018-03-06T02:11:18.124Z,3.57
2018-03-06T02:13:20.605Z,3.65
2018-03-06T02:15:23.090Z,3.65
2018-03-06T02:17:25.656Z,3.67
2018-03-06T02:19:28.228Z,3.58
2018-03-06T02:21:30.656Z,3.68
2018-03-06T02:23:33.126Z,3.69
2018-03-06T02:25:35.664Z,3.65
2018-03-06T02:27:38.210Z,3.75
2018-03-06T02:29:40.678Z,3.83
2018-03-06T02:31:43.140Z,3.80
2018-03-06T02:33:45.601Z,3.75
2018-03-06T02:35:48.182Z,3.78
2018-03-06T02:37:50.650Z,3.73
2018-03-06T02:39:53.186Z,3.68
2018-03-06T02:41:55.759Z,3.55
2018-03-06T02:43:58.353Z,3.49
2018-03-06T02:46:10.428Z,3.36
2018-03-06T02:48:12.957Z,3.23
2018-03-06T02:50:15.530Z,3.18
2018-03-06T02:52:17.986Z,3.16
2018-03-06T02:54:20.547Z,3.14
2018-03-06T02:56:23.142Z,3.11
2018-03-06T02:58:25.610Z,3.01
2018-03-06T03:00:28.052Z,2.98
2018-03-06T03:02:30.545Z,3.01
2018-03-06T03:04:33.115Z,3.15
2018-03-06T03:06:35.720Z,3.02
2018-03-06T03:08:38.197Z,3.11
2018-03-06T03:10:40.671Z,3.10
2018-03-06T03:12:43.182Z,3.13
2018-03-06T03:14:45.667Z,3.08
2018-03-06T03:16:48.276Z,3.05
2018-03-06T03:18:50.766Z,3.17
2018-03-06T03:20:53.287Z,3.16
2018-03-06T03:22:55.787Z,3.49
2018-03-06T03:24:58.243Z,3.53
2018-03-06T03:27:00.752Z,3.64
2018-03-06T03:29:03.198Z,3.60
2018-03-06T03:31:05.760Z,3.62
2018-03-06T03:33:08.236Z,3.57
2018-03-06T03:35:10.746Z,3.62
2018-03-06T03:37:13.234Z,3.65
2018-03-06T03:39:15.708Z,3.74
2018-03-06T03:41:18.498Z,3.75
2018-03-06T03:43:21.008Z,3.63
2018-03-06T03:45:23.586Z,3.58
2018-03-06T03:47:26.062Z,3.61
2018-03-06T03:49:28.780Z,3.61
2018-03-06T03:51:31.222Z,3.63
2018-03-06T03:53:33.766Z,3.55
2018-03-06T03:55:36.362Z,3.60
2018-03-06T03:57:38.818Z,3.53
2018-03-06T03:59:41.346Z,3.44
2018-03-06T04:01:43.943Z,3.50
2018-03-06T04:03:46.437Z,3.48
2018-03-06T04:05:48.902Z,3.65
2018-03-06T04:07:51.420Z,3.59
2018-03-06T04:09:53.886Z,3.54
2018-03-06T04:11:56.404Z,3.69
2018-03-06T04:13:58.850Z,3.69
2018-03-06T04:16:01.348Z,3.76
2018-03-06T04:18:03.804Z,3.74
2018-03-06T04:20:06.381Z,3.82
2018-03-06T04:22:08.970Z,3.89
2018-03-06T04:24:11.453Z,3.87
2018-03-06T04:26:13.959Z,3.91
2018-03-06T04:28:16.461Z,4.10
2018-03-06T04:30:19.048Z,4.03
2018-03-06T04:32:21.542Z,3.95
2018-03-06T04:34:24.031Z,3.84
2018-03-06T04:36:26.608Z,3.92
2018-03-06T04:38:29.089Z,4.13
2018-03-06T04:40:31.593Z,4.15
2018-03-06T04:42:34.108Z,4.00
2018-03-06T04:44:36.613Z,4.13
2018-03-06T04:46:39.099Z,4.07
2018-03-06T04:48:41.694Z,4.08
2018-03-06T04:50:44.192Z,4.14
2018-03-06T04:52:46.648Z,4.29
2018-03-06T04:54:49.108Z,4.12
2018-03-06T04:56:51.594Z,4.43
2018-03-06T04:58:54.056Z,4.26
2018-03-06T05:00:56.651Z,4.21
2018-03-06T05:02:59.149Z,4.32
2018-03-06T05:05:01.622Z,4.56
2018-03-06T05:07:04.134Z,4.31
2018-03-06T05:09:06.592Z,4.27
2018-03-06T05:11:09.044Z,4.30
2018-03-06T05:13:11.584Z,4.23
2018-03-06T05:15:14.042Z,4.19
2018-03-06T05:17:16.591Z,3.99
2018-03-06T05:19:19.193Z,3.85
2018-03-06T05:21:21.641Z,3.84
2018-03-06T05:23:24.178Z,3.75
2018-03-06T05:25:26.637Z,3.69
2018-03-06T05:27:29.114Z,3.64
2018-03-06T05:29:31.589Z,3.58
2018-03-06T05:31:34.084Z,3.45
2018-03-06T05:33:36.553Z,3.44
2018-03-06T05:35:39.121Z,3.31
2018-03-06T05:37:41.589Z,3.17
2018-03-06T05:39:44.069Z,3.08
2018-03-06T05:41:46.616Z,2.99
2018-03-06T05:43:49.217Z,2.96
2018-03-06T05:45:51.812Z,2.91
2018-03-06T05:47:54.308Z,2.81
2018-03-06T05:49:56.801Z,2.83
2018-03-06T05:51:59.385Z,2.85
2018-03-06T05:54:01.986Z,2.88
2018-03-06T05:56:04.473Z,3.04
2018-03-06T05:58:06.969Z,3.03
2018-03-06T06:00:09.469Z,3.05
2018-03-06T06:02:12.017Z,2.95
2018-03-06T06:04:14.554Z,3.00
2018-03-06T06:06:17.088Z,2.99
2018-03-06T06:08:19.569Z,3.11
2018-03-06T06:10:22.139Z,3.12
2018-03-06T06:12:24.637Z,3.14
2018-03-06T06:14:27.117Z,3.21
2018-03-06T06:16:29.610Z,3.26
2018-03-06T06:18:32.069Z,3.43
2018-03-06T06:20:34.595Z,3.41
2018-03-06T06:22:37.093Z,3.33
2018-03-06T06:24:39.688Z,3.26
2018-03-06T06:26:42.113Z,3.27
2018-03-06T06:28:44.569Z,3.33
2018-03-06T06:30:47.060Z,3.29
2018-03-06T06:32:49.529Z,3.34
2018-03-06T06:34:52.003Z,3.18
2018-03-06T06:36:54.462Z,3.02
2018-03-06T06:38:56.959Z,2.84
2018-03-06T06:40:59.406Z,2.72
2018-03-06T06:43:01.920Z,2.54
2018-03-06T06:45:04.518Z,2.46
2018-03-06T06:47:07.031Z,2.58
2018-03-06T06:49:09.619Z,2.62
2018-03-06T06:51:12.066Z,2.85
2018-03-06T06:53:14.590Z,3.05
2018-03-06T06:55:17.055Z,3.27
2018-03-06T06:57:19.530Z,3.39
2018-03-06T06:59:22.029Z,3.57
2018-03-06T07:01:24.565Z,3.73
2018-03-06T07:03:27.013Z,4.02
2018-03-06T07:05:29.473Z,4.09
2018-03-06T07:07:32.039Z,4.14
2018-03-06T07:09:34.638Z,4.28
2018-03-06T07:11:37.115Z,4.41
2018-03-06T07:13:39.620Z,4.49
2018-03-06T07:15:42.146Z,4.74
2018-03-06T07:17:44.605Z,4.74
2018-03-06T07:19:47.109Z,4.49
2018-03-06T07:21:49.578Z,4.52
2018-03-06T07:23:52.089Z,4.64
2018-03-06T07:25:54.594Z,4.71
2018-03-06T07:27:57.179Z,4.67
2018-03-06T07:29:59.627Z,4.81
2018-03-06T07:32:02.161Z,4.91
2018-03-06T07:34:04.655Z,4.88
2018-03-06T07:36:07.250Z,4.87
2018-03-06T07:38:09.789Z,4.98
2018-03-06T07:40:12.218Z,5.09
2018-03-06T07:42:15.525Z,5.24
2018-03-06T07:44:17.993Z,5.16
2018-03-06T07:46:20.541Z,5.28
2018-03-06T07:48:23.012Z,5.17
2018-03-06T07:50:25.520Z,5.19
2018-03-06T07:52:27.994Z,5.19
2018-03-06T07:54:30.509Z,5.17
2018-03-06T07:56:32.967Z,4.94
2018-03-06T07:58:35.406Z,4.98
2018-03-06T08:00:37.948Z,4.94
2018-03-06T08:02:40.355Z,5.02
2018-03-06T08:04:42.843Z,4.58
2018-03-06T08:06:45.361Z,4.28
2018-03-06T08:08:47.816Z,4.44
2018-03-06T08:10:50.381Z,4.52
2018-03-06T08:12:52.820Z,4.45
2018-03-06T08:14:55.295Z,4.38
2018-03-06T08:16:57.798Z,4.37
2018-03-06T08:19:00.325Z,4.14
2018-03-06T08:21:02.816Z,3.76
2018-03-06T08:23:05.281Z,3.80
2018-03-06T08:25:07.780Z,3.92
2018-03-06T08:27:10.396Z,4.12
2018-03-06T08:29:12.836Z,4.21
2018-03-06T08:31:15.381Z,4.43
2018-03-06T08:33:17.982Z,4.47
2018-03-06T08:35:20.446Z,4.62
2018-03-06T08:37:22.970Z,4.57
2018-03-06T08:39:25.498Z,4.65
2018-03-06T08:41:28.054Z,4.54
2018-03-06T08:43:30.500Z,4.56
2018-03-06T08:45:32.975Z,4.61
2018-03-06T08:47:35.534Z,4.65
2018-03-06T08:49:38.028Z,4.84
2018-03-06T08:51:40.520Z,4.91
2018-03-06T08:53:42.959Z,5.02
2018-03-06T08:55:45.470Z,5.10
2018-03-06T08:57:47.937Z,5.05
2018-03-06T08:59:50.491Z,5.01
2018-03-06T09:01:52.946Z,5.23
2018-03-06T09:03:55.424Z,5.43
2018-03-06T09:05:57.940Z,5.39
2018-03-06T09:08:00.467Z,5.24
2018-03-06T09:10:02.909Z,5.25
2018-03-06T09:12:05.392Z,5.32
2018-03-06T09:14:07.950Z,5.28
2018-03-06T09:16:10.486Z,5.28
2018-03-06T09:18:12.989Z,5.35
2018-03-06T09:20:15.523Z,5.37
2018-03-06T09:22:17.941Z,5.31
2018-03-06T09:24:20.412Z,5.37
2018-03-06T09:26:22.943Z,5.38
2018-03-06T09:28:25.501Z,5.42
2018-03-06T09:30:28.094Z,5.52
2018-03-06T09:32:30.580Z,5.48
2018-03-06T09:34:33.184Z,5.57
2018-03-06T09:36:35.683Z,5.55
2018-03-06T09:38:38.141Z,5.60
2018-03-06T09:40:40.620Z,5.57
2018-03-06T09:42:43.153Z,5.72
2018-03-06T09:44:45.610Z,5.74
2018-03-06T09:46:48.037Z,5.78
2018-03-06T09:48:50.537Z,5.71
2018-03-06T09:50:52.985Z,5.90
2018-03-06T09:52:55.500Z,5.93
2018-03-06T09:54:58.011Z,5.90
2018-03-06T09:57:00.484Z,5.95
2018-03-06T09:59:02.958Z,6.02
2018-03-06T10:01:05.447Z,6.13
2018-03-06T10:03:07.902Z,6.10
2018-03-06T10:05:10.420Z,6.00
2018-03-06T10:07:12.868Z,6.12
2018-03-06T10:09:15.465Z,6.29
2018-03-06T10:11:17.959Z,6.24
2018-03-06T10:13:20.445Z,6.30
2018-03-06T10:15:22.908Z,6.48
2018-03-06T10:17:25.402Z,6.58
2018-03-06T10:19:28.050Z,6.61
2018-03-06T10:21:30.625Z,6.76
2018-03-06T10:23:33.077Z,6.87
2018-03-06T10:25:35.610Z,6.82
2018-03-06T10:27:38.057Z,6.83
2018-03-06T10:29:40.600Z,6.94
2018-03-06T10:31:43.063Z,7.09
2018-03-06T10:33:45.598Z,7.14
2018-03-06T10:35:48.181Z,7.16
2018-03-06T10:37:50.673Z,7.22
2018-03-06T10:39:53.266Z,7.19
2018-03-06T10:41:55.790Z,7.30
2018-03-06T10:43:58.283Z,7.27
2018-03-06T10:46:00.754Z,7.42
2018-03-06T10:48:03.346Z,7.58
2018-03-06T10:50:05.836Z,7.59
2018-03-06T10:52:08.304Z,7.56
2018-03-06T10:54:10.938Z,7.55
2018-03-06T10:56:13.419Z,7.69
2018-03-06T10:58:16.007Z,7.79
2018-03-06T11:00:23.985Z,7.85
2018-03-06T11:02:32.462Z,7.96
2018-03-06T11:04:35.064Z,8.04
2018-03-06T11:06:37.657Z,7.94
2018-03-06T11:08:40.145Z,8.02
2018-03-06T11:10:42.641Z,7.98
2018-03-06T11:12:45.107Z,7.94
2018-03-06T11:14:47.607Z,8.07
2018-03-06T11:16:50.131Z,7.98
2018-03-06T11:18:52.585Z,8.11
2018-03-06T11:20:55.074Z,8.13
2018-03-06T11:22:57.596Z,8.23
2018-03-06T11:25:00.069Z,8.14
2018-03-06T11:27:02.542Z,8.19
2018-03-06T11:29:05.088Z,8.29
2018-03-06T11:31:07.666Z,8.32
2018-03-06T11:33:10.183Z,8.26
2018-03-06T11:35:12.659Z,8.43
2018-03-06T11:37:15.166Z,8.56
2018-03-06T11:39:17.742Z,8.43
2018-03-06T11:41:20.241Z,8.50
2018-03-06T11:43:22.718Z,8.46
2018-03-06T11:45:25.233Z,8.49
2018-03-06T11:47:27.752Z,8.41
2018-03-06T11:49:30.278Z,8.51
2018-03-06T11:51:32.753Z,8.56
2018-03-06T11:53:35.242Z,8.50
2018-03-06T11:55:37.696Z,8.58
2018-03-06T11:57:40.158Z,8.56
2018-03-06T11:59:42.692Z,8.56
2018-03-06T12:01:45.192Z,8.56
2018-03-06T12:03:47.695Z,8.65
2018-03-06T12:05:50.261Z,8.74
2018-03-06T12:07:52.712Z,8.81
2018-03-06T12:09:55.267Z,8.77
2018-03-06T12:11:57.842Z,8.94
2018-03-06T12:14:00.304Z,8.89
2018-03-06T12:16:02.938Z,8.91
2018-03-06T12:18:05.417Z,8.92
2018-03-06T12:20:07.918Z,8.88
2018-03-06T12:22:10.469Z,9.19
2018-03-06T12:24:13.003Z,9.18
2018-03-06T12:26:15.517Z,9.16
2018-03-06T12:28:17.996Z,9.31
2018-03-06T12:30:20.482Z,9.30
2018-03-06T12:32:22.972Z,9.31
2018-03-06T12:34:25.477Z,9.21
2018-03-06T12:36:27.958Z,9.16
2018-03-06T12:38:30.393Z,9.30
2018-03-06T12:40:32.908Z,9.47
2018-03-06T12:42:35.417Z,9.48
2018-03-06T12:44:37.894Z,9.56
2018-03-06T12:46:40.427Z,9.36
2018-03-06T12:48:42.894Z,9.63
2018-03-06T12:50:45.363Z,9.71
2018-03-06T12:52:47.908Z,9.67
2018-03-06T12:54:50.502Z,9.84
2018-03-06T12:56:52.908Z,9.81
2018-03-06T12:58:55.390Z,9.86
2018-03-06T13:00:57.923Z,9.69
2018-03-06T13:03:00.374Z,9.79
2018-03-06T13:05:02.968Z,9.91
2018-03-06T13:07:05.475Z,10.12
2018-03-06T13:09:08.055Z,10.29
2018-03-06T13:11:10.579Z,10.34
2018-03-06T13:13:13.110Z,10.36
2018-03-06T13:15:15.593Z,10.26
2018-03-06T13:17:18.128Z,10.09
2018-03-06T13:19:20.659Z,10.24
2018-03-06T13:21:23.130Z,10.23
2018-03-06T13:23:25.720Z,10.21
2018-03-06T13:25:28.165Z,10.25
2018-03-06T13:27:30.650Z,10.20
2018-03-06T13:29:33.149Z,10.18
2018-03-06T13:31:35.600Z,10.27
2018-03-06T13:33:38.084Z,10.29
2018-03-06T13:35:40.575Z,10.26
2018-03-06T13:37:43.076Z,10.23
2018-03-06T13:39:45.587Z,10.21
2018-03-06T13:41:48.069Z,10.37
2018-03-06T13:43:50.647Z,10.58
2018-03-06T13:45:53.152Z,10.60
2018-03-06T13:47:55.729Z,10.60
2018-03-06T13:49:58.192Z,10.60
2018-03-06T13:52:00.718Z,10.55
2018-03-06T13:54:03.329Z,10.46
2018-03-06T13:56:05.810Z,10.48
2018-03-06T13:58:08.268Z,10.35
2018-03-06T14:00:10.718Z,10.41
2018-03-06T14:02:13.286Z,10.33
2018-03-06T14:04:15.883Z,10.34
2018-03-06T14:06:18.333Z,10.30
2018-03-06T14:08:20.822Z,10.33
2018-03-06T14:10:23.361Z,10.26
2018-03-06T14:12:25.820Z,10.22
2018-03-06T14:14:28.368Z,10.13
2018-03-06T14:16:30.839Z,9.96
2018-03-06T14:18:33.283Z,9.94
2018-03-06T14:20:35.829Z,9.82
2018-03-06T14:22:38.324Z,9.86
2018-03-06T14:24:40.830Z,9.83
2018-03-06T14:26:47.957Z,9.71
2018-03-06T14:28:50.429Z,9.69
2018-03-06T14:30:53.003Z,9.64
2018-03-06T14:32:55.471Z,9.25
2018-03-06T14:34:57.983Z,9.34
2018-03-06T14:37:00.585Z,9.39
2018-03-06T14:39:03.076Z,9.37
2018-03-06T14:41:05.672Z,9.23
2018-03-06T14:43:08.131Z,9.11
2018-03-06T14:45:10.589Z,8.91
2018-03-06T14:47:13.060Z,8.92
2018-03-06T14:49:15.515Z,8.90
2018-03-06T14:51:18.011Z,8.82
2018-03-06T14:53:20.540Z,8.73
2018-03-06T14:55:22.984Z,8.65
2018-03-06T14:57:25.514Z,8.48
2018-03-06T14:59:28.113Z,8.55
2018-03-06T15:01:30.642Z,8.33
2018-03-06T15:03:34.331Z,8.35
2018-03-06T15:05:36.819Z,8.43
2018-03-06T15:07:39.306Z,8.28
2018-03-06T15:09:41.820Z,8.12
2018-03-06T15:11:44.309Z,8.22
2018-03-06T15:13:46.810Z,8.11
2018-03-06T15:15:49.286Z,8.05
2018-03-06T15:17:51.747Z,7.94
2018-03-06T15:19:54.252Z,7.88
2018-03-06T15:21:56.740Z,7.79
2018-03-06T15:23:59.219Z,7.69
2018-03-06T15:26:01.689Z,7.61
2018-03-06T15:28:04.237Z,7.56
2018-03-06T15:30:06.832Z,7.33
2018-03-06T15:32:09.430Z,7.27
2018-03-06T15:34:12.010Z,7.33
2018-03-06T15:36:14.456Z,7.38
2018-03-06T15:38:16.914Z,7.35
2018-03-06T15:40:19.437Z,7.31
2018-03-06T15:42:21.898Z,7.20
2018-03-06T15:44:24.350Z,7.12
2018-03-06T15:46:26.884Z,7.11
2018-03-06T15:48:29.373Z,6.99
2018-03-06T15:50:31.982Z,6.99
2018-03-06T15:52:34.469Z,6.95
2018-03-06T15:54:37.058Z,6.86
2018-03-06T15:56:39.523Z,6.89
2018-03-06T15:58:42.042Z,6.86
2018-03-06T16:00:44.550Z,6.73
2018-03-06T16:02:47.036Z,6.69
2018-03-06T16:04:49.726Z,6.68
2018-03-06T16:06:52.187Z,6.57
2018-03-06T16:08:54.689Z,6.65
2018-03-06T16:10:57.221Z,6.63
2018-03-06T16:12:59.688Z,6.64
2018-03-06T16:15:02.147Z,6.53
2018-03-06T16:17:04.659Z,6.37
2018-03-06T16:19:07.192Z,6.38
2018-03-06T16:21:09.717Z,6.35
2018-03-06T16:23:12.372Z,6.26
2018-03-06T16:25:14.845Z,6.16
2018-03-06T16:27:17.465Z,6.19
2018-03-06T16:29:19.920Z,6.17
2018-03-06T16:31:22.455Z,5.99
2018-03-06T16:33:24.941Z,5.86
2018-03-06T16:35:27.413Z,5.94
2018-03-06T16:37:29.942Z,5.85
2018-03-06T16:39:32.398Z,5.81
2018-03-06T16:41:34.906Z,5.69
2018-03-06T16:43:37.477Z,5.64
2018-03-06T16:45:40.063Z,5.65
2018-03-06T16:47:42.676Z,5.55
2018-03-06T16:49:45.191Z,5.52
2018-03-06T16:51:47.685Z,5.45
2018-03-06T16:53:50.221Z,5.42
2018-03-06T16:55:52.786Z,5.39
2018-03-06T16:57:55.266Z,5.30
2018-03-06T16:59:57.749Z,5.19
2018-03-06T17:02:00.761Z,5.12
2018-03-06T17:04:03.472Z,5.09
2018-03-06T17:06:06.003Z,5.21
2018-03-06T17:08:08.496Z,5.19
2018-03-06T17:10:11.046Z,5.03
2018-03-06T17:12:13.540Z,4.88
2018-03-06T17:14:16.076Z,4.73
2018-03-06T17:16:18.731Z,4.64
2018-03-06T17:18:21.202Z,4.68
2018-03-06T17:20:23.678Z,4.62
2018-03-06T17:22:26.236Z,4.54
2018-03-06T17:24:28.806Z,4.57
2018-03-06T17:26:31.307Z,4.62
2018-03-06T17:28:33.786Z,4.64
2018-03-06T17:30:36.274Z,4.53
2018-03-06T17:32:38.980Z,4.48
2018-03-06T17:34:41.477Z,4.44
2018-03-06T17:36:44.001Z,4.41
2018-03-06T17:38:46.558Z,4.37
2018-03-06T17:40:49.053Z,4.28
2018-03-06T17:42:51.527Z,4.19
2018-03-06T17:44:54.041Z,4.08
2018-03-06T17:46:57.678Z,4.06
2018-03-06T17:49:00.265Z,4.05
2018-03-06T17:51:02.849Z,4.03
2018-03-06T17:53:05.342Z,4.00
2018-03-06T17:55:07.838Z,3.98
2018-03-06T17:57:10.353Z,3.97
2018-03-06T17:59:12.865Z,3.98
2018-03-06T18:01:15.371Z,3.94
2018-03-06T18:03:17.916Z,3.87
2018-03-06T18:05:20.478Z,3.84
2018-03-06T18:07:22.942Z,3.83
2018-03-06T18:09:25.531Z,3.86
2018-03-06T18:11:28.024Z,3.91
2018-03-06T18:13:30.590Z,3.88
2018-03-06T18:15:33.180Z,3.75
2018-03-06T18:17:35.698Z,3.68
2018-03-06T18:19:38.172Z,3.64
2018-03-06T18:21:40.707Z,3.61
2018-03-06T18:23:43.174Z,3.58
2018-03-06T18:25:45.647Z,3.54
2018-03-06T18:27:48.237Z,3.52
2018-03-06T18:29:50.731Z,3.52
2018-03-06T18:31:53.233Z,3.48
2018-03-06T18:33:55.822Z,3.44
2018-03-06T18:35:58.312Z,3.44
2018-03-06T18:38:00.907Z,3.45
2018-03-06T18:40:03.401Z,3.45
2018-03-06T18:42:05.860Z,3.45
2018-03-06T18:44:08.329Z,3.48
2018-03-06T18:46:10.986Z,3.49
2018-03-06T18:48:13.538Z,3.45
2018-03-06T18:50:27.703Z,3.45
2018-03-06T18:52:30.244Z,3.48
2018-03-06T18:54:32.732Z,3.48
2018-03-06T18:56:35.212Z,3.45
2018-03-06T18:58:37.713Z,3.45
2018-03-06T19:01:00.934Z,3.46
2018-03-06T19:03:10.429Z,3.43
2018-03-06T19:05:24.797Z,3.42
2018-03-06T19:07:27.396Z,3.43
2018-03-06T19:09:29.931Z,3.39
2018-03-06T19:11:32.477Z,3.31
2018-03-06T19:13:34.993Z,3.29
2018-03-06T19:15:37.493Z,3.27
2018-03-06T19:17:40.042Z,3.25
2018-03-06T19:19:42.618Z,3.26
2018-03-06T19:21:45.149Z,3.18
2018-03-06T19:23:47.664Z,3.16
2018-03-06T19:25:50.235Z,3.17
2018-03-06T19:27:53.145Z,3.12
2018-03-06T19:29:55.635Z,3.10
2018-03-06T19:31:58.112Z,3.09
2018-03-06T19:34:00.822Z,3.04
2018-03-06T19:36:03.459Z,3.01
2018-03-06T19:38:06.180Z,2.97
2018-03-06T19:40:08.719Z,2.90
2018-03-06T19:42:11.492Z,2.85
2018-03-06T19:44:14.057Z,2.80
2018-03-06T19:46:16.574Z,2.76
2018-03-06T19:48:19.299Z,2.73
2018-03-06T19:50:21.895Z,2.69
2018-03-06T19:52:24.388Z,2.66
2018-03-06T19:54:26.917Z,2.65
2018-03-06T19:56:29.459Z,2.64
2018-03-06T19:58:31.890Z,2.61
2018-03-06T20:00:34.460Z,2.57
2018-03-06T20:02:37.250Z,2.51
2018-03-06T20:04:39.840Z,2.45
2018-03-06T20:06:42.651Z,2.40
2018-03-06T20:08:45.193Z,2.38
2018-03-06T20:10:47.655Z,2.35
2018-03-06T20:12:50.193Z,2.34
2018-03-06T20:14:58.214Z,2.30
2018-03-06T20:17:01.011Z,2.28
2018-03-06T20:19:09.335Z,2.25
2018-03-06T20:21:11.846Z,2.23
2018-03-06T20:23:14.523Z,2.21
2018-03-06T20:25:22.730Z,2.21
2018-03-06T20:27:25.290Z,2.19
2018-03-06T20:29:27.729Z,2.19
2018-03-06T20:31:35.766Z,2.16
2018-03-06T20:33:38.293Z,2.16
2018-03-06T20:35:40.831Z,2.19
2018-03-06T20:37:43.677Z,2.20
2018-03-06T20:39:51.799Z,2.23
2018-03-06T20:41:54.405Z,2.22
2018-03-06T20:43:56.864Z,2.23
2018-03-06T20:46:04.965Z,2.25
2018-03-06T20:48:07.486Z,2.24
2018-03-06T20:50:10.015Z,2.25
2018-03-06T20:52:12.540Z,2.26
2018-03-06T20:54:20.535Z,2.27
2018-03-06T20:56:23.097Z,2.25
2018-03-06T20:58:25.614Z,2.24
2018-03-06T21:00:28.208Z,2.23
2018-03-06T21:02:30.732Z,2.21
2018-03-06T21:04:33.219Z,2.17
2018-03-06T21:06:35.718Z,2.17
2018-03-06T21:08:38.236Z,2.15
2018-03-06T21:10:40.723Z,2.14
2018-03-06T21:12:43.256Z,2.14
2018-03-06T21:14:45.757Z,2.12
2018-03-06T21:16:48.364Z,2.10
2018-03-06T21:18:50.960Z,2.11
2018-03-06T21:20:53.508Z,2.11
2018-03-06T21:22:55.984Z,2.11
2018-03-06T21:24:58.646Z,2.09
2018-03-06T21:27:01.113Z,2.09
2018-03-06T21:29:03.625Z,2.09
2018-03-06T21:31:06.131Z,2.11
2018-03-06T21:33:08.610Z,2.11
2018-03-06T21:35:11.238Z,2.13
2018-03-06T21:37:14.616Z,2.12
2018-03-06T21:39:17.118Z,2.11
2018-03-06T21:41:19.640Z,2.12
2018-03-06T21:43:22.301Z,2.12
2018-03-06T21:45:24.762Z,2.12
2018-03-06T21:47:27.291Z,2.12
2018-03-06T21:49:29.800Z,2.10
2018-03-06T21:51:32.304Z,2.09
2018-03-06T21:53:34.761Z,2.07
2018-03-06T21:55:37.245Z,2.02
2018-03-06T21:57:39.749Z,2.02
2018-03-06T21:59:42.269Z,1.99
2018-03-06T22:01:44.781Z,2.00
2018-03-06T22:03:47.247Z,1.98
2018-03-06T22:05:49.712Z,1.97
2018-03-06T22:07:52.321Z,1.96
2018-03-06T22:09:54.891Z,1.93
2018-03-06T22:11:57.426Z,1.94
2018-03-06T22:13:59.975Z,1.93
2018-03-06T22:16:02.597Z,1.93
2018-03-06T22:18:05.174Z,1.93
2018-03-06T22:20:07.665Z,1.95
2018-03-06T22:22:10.140Z,1.92
2018-03-06T22:24:12.594Z,1.93
2018-03-06T22:26:15.086Z,1.94
2018-03-06T22:28:17.635Z,1.90
2018-03-06T22:30:20.190Z,1.91
2018-03-06T22:32:22.648Z,1.90
2018-03-06T22:34:25.144Z,1.90
2018-03-06T22:36:27.685Z,1.87
2018-03-06T22:38:30.137Z,1.88
2018-03-06T22:40:32.725Z,1.87
2018-03-06T22:42:35.245Z,1.87
2018-03-06T22:44:38.827Z,1.88
2018-03-06T22:46:41.341Z,1.86
2018-03-06T22:48:43.810Z,1.86
2018-03-06T22:50:46.346Z,1.86
2018-03-06T22:52:48.842Z,1.85
2018-03-06T22:54:51.322Z,1.86
2018-03-06T22:56:53.792Z,1.84
2018-03-06T22:58:56.270Z,1.83
2018-03-06T23:00:58.738Z,1.83
2018-03-06T23:03:01.245Z,1.83
2018-03-06T23:05:03.751Z,1.81
2018-03-06T23:07:06.241Z,1.82
2018-03-06T23:09:08.700Z,1.82
2018-03-06T23:11:11.200Z,1.81
2018-03-06T23:13:13.661Z,1.81
2018-03-06T23:15:16.217Z,1.80
2018-03-06T23:19:44.547Z,1.78
2018-03-06T23:21:47.037Z,1.77
2018-03-06T23:23:49.483Z,1.75
2018-03-06T23:25:51.982Z,1.70
2018-03-06T23:27:54.467Z,1.68
2018-03-06T23:29:56.957Z,1.65
2018-03-06T23:31:59.546Z,1.65
2018-03-06T23:34:02.052Z,1.64
2018-03-06T23:36:04.516Z,1.61
2018-03-06T23:38:07.016Z,1.57
2018-03-06T23:40:09.581Z,1.55
2018-03-06T23:42:12.040Z,1.51
2018-03-06T23:44:14.514Z,1.48
2018-03-06T23:46:16.976Z,1.41
2018-03-06T23:48:19.557Z,1.37
2018-03-06T23:50:22.041Z,1.37
2018-03-06T23:52:24.638Z,1.32
2018-03-06T23:54:27.234Z,1.29
2018-03-06T23:56:29.826Z,1.27
2018-03-06T23:58:32.321Z,1.25
